Time;durP1;ratioP1;P1;durP2;ratioP2;P2;SDS_P1;SDS_P2;PMS_P1;PMS_P2;Temp;Humidity;BMP_temperature;BMP_pressure;BME280_temperature;BME280_humidity;BME280_pressure;Samples;Min_cycle;Max_cycle;Signal;HPM_P1;HPM_P2
2022/07/05 00:02:02;;;;;;;6.57;4.57;;;13.40;99.90;;;;;;5112687;28;20369;-66
2022/07/05 00:04:27;;;;;;;;;;;13.20;99.90;;;;;;5112600;28;20555;-66
2022/07/05 00:09:37;;;;;;;10.63;5.05;;;13.50;99.90;;;;;;5112546;28;20055;-66
2022/07/05 00:12:04;;;;;;;8.27;4.90;;;13.60;99.90;;;;;;5112372;28;20101;-66
2022/07/05 00:14:30;;;;;;;7.57;5.25;;;11.10;99.90;;;;;;5112486;28;20050;-65
2022/07/05 00:16:56;;;;;;;8.63;5.47;;;13.30;99.90;;;;;;5112511;28;20517;-66
2022/07/05 00:19:22;;;;;;;8.75;5.07;;;13.60;99.90;;;;;;5112266;28;20043;-66
2022/07/05 00:21:47;;;;;;;;;;;13.30;99.90;;;;;;5112704;28;20137;-65
2022/07/05 00:24:13;;;;;;;10.10;5.15;;;13.60;99.90;;;;;;5112319;28;19925;-65
2022/07/05 00:26:39;;;;;;;5.53;4.80;;;13.40;99.90;;;;;;5112361;28;20078;-65
2022/07/05 00:29:04;;;;;;;10.10;5.15;;;13.70;99.90;;;;;;5112042;28;20047;-66
2022/07/05 00:31:30;;;;;;;7.10;5.03;;;13.30;99.90;;;;;;5112291;28;20044;-65
2022/07/05 00:33:55;;;;;;;;;;;14.20;99.90;;;;;;5112729;28;20104;-66
2022/07/05 00:36:21;;;;;;;10.30;5.10;;;13.50;99.90;;;;;;5112213;28;19969;-67
2022/07/05 00:38:47;;;;;;;5.53;4.53;;;13.70;99.90;;;;;;5112539;28;20040;-66
2022/07/05 00:41:13;;;;;;;10.70;4.88;;;13.50;99.90;;;;;;5112199;28;20432;-65
2022/07/05 00:43:54;;;;;;;8.30;4.88;;;13.30;99.90;;;;;;5112208;28;20101;-65
2022/07/05 00:46:20;;;;;;;8.23;5.50;;;13.40;99.90;;;;;;5112138;28;20051;-66
2022/07/05 00:48:46;;;;;;;5.95;4.90;;;13.10;99.90;;;;;;5112091;28;20047;-65
2022/07/05 00:51:11;;;;;;;6.72;5.00;;;13.50;99.90;;;;;;5114608;28;20128;-66
2022/07/05 00:53:37;;;;;;;;;;;13.60;99.90;;;;;;5116692;28;20044;-68
2022/07/05 00:56:04;;;;;;;7.15;4.90;;;13.40;99.90;;;;;;5116235;28;19924;-66
2022/07/05 00:58:32;;;;;;;8.63;5.35;;;12.80;99.90;;;;;;5116186;28;20127;-65
2022/07/05 01:01:01;;;;;;;7.95;4.90;;;13.10;99.90;;;;;;5115062;28;20479;-66
2022/07/05 01:03:27;;;;;;;7.70;5.72;;;13.50;99.90;;;;;;5114879;28;20047;-66
2022/07/05 01:05:54;;;;;;;6.75;5.15;;;12.90;99.90;;;;;;5116081;28;20130;-69
2022/07/05 01:08:21;;;;;;;5.75;5.10;;;13.00;99.90;;;;;;5115894;28;20092;-68
2022/07/05 01:10:47;;;;;;;6.30;5.30;;;12.60;99.90;;;;;;5115904;28;20043;-65
2022/07/05 01:13:13;;;;;;;8.18;5.55;;;12.90;99.90;;;;;;5115898;28;20131;-66
2022/07/05 01:15:40;;;;;;;6.90;5.43;;;12.80;99.90;;;;;;5114594;28;20051;-66
2022/07/05 01:18:07;;;;;;;9.80;5.97;;;12.50;99.90;;;;;;5115790;28;20112;-66
2022/07/05 01:20:33;;;;;;;8.55;6.32;;;12.50;99.90;;;;;;5115805;28;20471;-65
2022/07/05 01:23:01;;;;;;;5.95;5.13;;;12.30;99.90;;;;;;5115352;28;20515;-66
2022/07/05 01:25:29;;;;;;;6.70;5.30;;;12.40;99.90;;;;;;5115734;28;20046;-66
2022/07/05 01:27:57;;;;;;;8.93;5.82;;;12.50;99.90;;;;;;5115415;28;20063;-70
2022/07/05 01:30:24;;;;;;;8.77;5.68;;;12.40;99.90;;;;;;5115553;28;20058;-66
2022/07/05 01:32:50;;;;;;;7.10;5.55;;;12.40;99.90;;;;;;5115584;28;20394;-67
2022/07/05 01:35:23;;;;;;;7.63;5.88;;;12.30;99.90;;;;;;5115824;28;20138;-66
2022/07/05 01:37:50;;;;;;;7.43;5.63;;;12.00;99.90;;;;;;5115524;28;20043;-66
2022/07/05 01:40:17;;;;;;;9.85;6.53;;;12.10;99.90;;;;;;5115378;28;20122;-66
2022/07/05 01:42:43;;;;;;;7.07;5.85;;;12.60;99.90;;;;;;5097160;28;20044;-66
2022/07/05 01:45:09;;;;;;;6.95;5.40;;;12.50;99.90;;;;;;5115047;28;20498;-66
2022/07/05 01:47:37;;;;;;;8.50;6.07;;;12.20;99.90;;;;;;5115198;28;20574;-66
2022/07/05 01:50:06;;;;;;;7.35;6.10;;;12.30;99.90;;;;;;5115250;28;20492;-66
2022/07/05 01:52:33;;;;;;;9.88;6.15;;;11.90;99.90;;;;;;5115278;28;20139;-66
2022/07/05 01:55:00;;;;;;;13.73;6.55;;;11.70;99.90;;;;;;5115127;28;20044;-65
2022/07/05 01:57:26;;;;;;;8.25;6.30;;;12.10;99.90;;;;;;5115075;28;20082;-66
2022/07/05 01:59:52;;;;;;;10.25;6.65;;;12.50;99.90;;;;;;5115085;28;20079;-67
2022/07/05 02:02:18;;;;;;;12.90;6.40;;;11.60;99.90;;;;;;5114477;28;20050;-65
2022/07/05 02:04:43;;;;;;;9.73;6.65;;;11.80;99.90;;;;;;5114980;28;20050;-66
2022/07/05 02:07:09;;;;;;;8.10;6.70;;;11.90;99.90;;;;;;5114878;28;20039;-66
2022/07/05 02:09:35;;;;;;;;;;;11.60;99.90;;;;;;5113903;28;20047;-65
2022/07/05 02:12:03;;;;;;;7.88;5.90;;;12.50;99.90;;;;;;5114811;27;19924;-66
2022/07/05 02:14:29;;;;;;;9.02;6.13;;;11.50;99.90;;;;;;5113441;28;20140;-65
2022/07/05 02:16:55;;;;;;;9.73;6.82;;;11.60;99.90;;;;;;5114705;28;20091;-65
2022/07/05 02:19:21;;;;;;;7.80;6.10;;;12.00;99.90;;;;;;5114361;28;20059;-66
2022/07/05 02:21:46;;;;;;;12.05;7.25;;;11.20;99.90;;;;;;5114342;28;20090;-65
2022/07/05 02:24:12;;;;;;;7.18;6.47;;;11.40;99.90;;;;;;5114564;28;20096;-67
2022/07/05 02:26:38;;;;;;;9.23;7.28;;;11.70;99.90;;;;;;5114516;28;20079;-65
2022/07/05 02:29:04;;;;;;;11.00;7.55;;;11.00;99.90;;;;;;5113798;28;20062;-65
2022/07/05 02:31:31;;;;;;;12.65;7.40;;;12.10;99.90;;;;;;5114374;28;20058;-65
2022/07/05 02:33:56;;;;;;;15.90;7.78;;;11.30;99.90;;;;;;5114397;28;20047;-65
2022/07/05 02:36:22;;;;;;;11.85;7.40;;;12.00;99.90;;;;;;5114284;28;20167;-65
2022/07/05 02:38:48;;;;;;;11.85;7.70;;;11.40;99.90;;;;;;5113958;28;20043;-68
2022/07/05 02:41:14;;;;;;;11.05;7.57;;;11.20;99.90;;;;;;5114201;28;20098;-65
2022/07/05 02:43:40;;;;;;;10.52;6.95;;;11.50;99.90;;;;;;5114124;27;20043;-64
2022/07/05 02:46:06;;;;;;;;;;;11.30;99.90;;;;;;5114538;28;20387;-64
2022/07/05 02:48:32;;;;;;;10.15;7.03;;;11.40;99.90;;;;;;5114187;28;19954;-64
2022/07/05 02:50:58;;;;;;;9.55;6.55;;;12.20;99.90;;;;;;5113952;28;20052;-67
2022/07/05 02:53:24;;;;;;;8.65;7.20;;;11.50;99.90;;;;;;5113972;28;20444;-68
2022/07/05 02:55:50;;;;;;;7.45;6.70;;;12.00;99.90;;;;;;5113927;28;20050;-66
2022/07/05 02:58:16;;;;;;;11.90;7.32;;;11.70;99.90;;;;;;5114010;28;20047;-67
2022/07/05 03:00:43;;;;;;;;;;;11.10;99.90;;;;;;5114253;28;20083;-66
2022/07/05 03:03:09;;;;;;;10.53;7.43;;;11.30;99.90;;;;;;5113749;28;20354;-66
2022/07/05 03:05:35;;;;;;;10.38;7.22;;;11.40;99.90;;;;;;5113736;28;20317;-66
2022/07/05 03:08:00;;;;;;;;;;;11.30;99.90;;;;;;5114083;28;20084;-66
2022/07/05 03:10:26;;;;;;;8.48;7.22;;;11.30;99.90;;;;;;5113528;28;20014;-67
2022/07/05 03:12:52;;;;;;;11.75;7.68;;;11.00;99.90;;;;;;5112787;28;20520;-66
2022/07/05 03:15:18;;;;;;;8.93;7.07;;;11.10;99.90;;;;;;5113602;28;20044;-67
2022/07/05 03:17:43;;;;;;;12.57;7.95;;;11.50;99.90;;;;;;5113497;28;20387;-66
2022/07/05 03:20:10;;;;;;;12.85;7.93;;;12.20;99.90;;;;;;5112455;28;20047;-66
2022/07/05 03:22:35;;;;;;;11.82;7.55;;;11.20;99.90;;;;;;5113424;27;20079;-67
2022/07/05 03:25:02;;;;;;;12.27;8.00;;;11.70;99.90;;;;;;5113431;28;20056;-66
2022/07/05 03:27:28;;;;;;;9.25;8.10;;;11.10;99.90;;;;;;5113299;28;20047;-66
2022/07/05 03:29:54;;;;;;;12.05;8.27;;;11.60;99.90;;;;;;5112803;28;20413;-66
2022/07/05 03:32:19;;;;;;;12.10;8.10;;;11.30;99.90;;;;;;5113287;28;20043;-67
2022/07/05 03:34:45;;;;;;;11.55;7.82;;;11.40;99.90;;;;;;5113161;28;20043;-65
2022/07/05 03:37:11;;;;;;;12.70;9.10;;;11.60;99.90;;;;;;5112049;28;20044;-66
2022/07/05 03:39:36;;;;;;;11.48;7.97;;;11.70;99.90;;;;;;5113132;28;20395;-65
2022/07/05 03:42:02;;;;;;;12.20;8.07;;;12.60;99.90;;;;;;5112168;28;20052;-67
2022/07/05 03:44:28;;;;;;;9.43;7.90;;;11.90;99.90;;;;;;5113253;28;20048;-65
2022/07/05 03:46:53;;;;;;;10.20;7.80;;;12.80;99.90;;;;;;5112974;28;20051;-66
2022/07/05 03:49:19;;;;;;;11.35;8.38;;;12.10;99.90;;;;;;5112899;28;20471;-65
2022/07/05 03:51:45;;;;;;;12.50;8.68;;;12.10;99.90;;;;;;5112939;28;20466;-65
2022/07/05 03:54:10;;;;;;;12.90;8.25;;;12.00;99.90;;;;;;5112777;28;20054;-65
2022/07/05 03:56:36;;;;;;;11.07;7.72;;;12.20;99.90;;;;;;5112813;28;20040;-66
2022/07/05 03:59:02;;;;;;;9.50;7.80;;;12.10;99.90;;;;;;5112757;28;20039;-66
2022/07/05 04:01:27;;;;;;;9.35;7.82;;;12.10;99.90;;;;;;5112753;28;20043;-66
2022/07/05 04:03:53;;;;;;;9.88;8.15;;;12.20;99.90;;;;;;5112994;28;20047;-66
2022/07/05 04:06:19;;;;;;;11.82;7.78;;;11.90;99.90;;;;;;5112658;27;20452;-65
2022/07/05 04:08:44;;;;;;;11.77;7.88;;;12.10;99.90;;;;;;5112229;28;20130;-65
2022/07/05 04:11:12;;;;;;;12.07;8.00;;;12.20;99.90;;;;;;5111285;28;20051;-65
2022/07/05 04:13:40;;;;;;;8.20;7.40;;;12.10;99.90;;;;;;5111291;28;20047;-65
2022/07/05 04:16:05;;;;;;;9.52;7.78;;;12.20;99.90;;;;;;5112511;28;20048;-65
2022/07/05 04:18:31;;;;;;;9.90;8.13;;;12.30;99.90;;;;;;5111236;28;20121;-68
2022/07/05 04:20:57;;;;;;;13.60;8.32;;;12.20;99.90;;;;;;5112190;28;20075;-65
2022/07/05 04:23:22;;;;;;;12.50;7.65;;;12.10;99.90;;;;;;5111429;28;20051;-65
2022/07/05 04:25:48;;;;;;;11.30;7.78;;;11.90;99.90;;;;;;5112235;28;20043;-65
2022/07/05 04:28:13;;;;;;;9.80;7.28;;;12.20;99.90;;;;;;5111864;28;20503;-65
2022/07/05 04:30:39;;;;;;;12.32;8.52;;;12.10;99.90;;;;;;5111109;28;20044;-68
2022/07/05 04:33:05;;;;;;;8.63;7.72;;;12.50;99.90;;;;;;5112304;28;20051;-65
2022/07/05 04:35:30;;;;;;;10.88;7.47;;;12.30;99.90;;;;;;5112328;28;20460;-65
2022/07/05 04:37:56;;;;;;;10.05;7.07;;;12.40;99.90;;;;;;5112289;28;20044;-64
2022/07/05 04:40:22;;;;;;;11.23;7.43;;;12.20;99.90;;;;;;5112223;28;20044;-65
2022/07/05 04:42:47;;;;;;;8.85;6.78;;;12.60;99.90;;;;;;5111963;28;20104;-66
2022/07/05 04:45:13;;;;;;;10.55;7.25;;;12.60;99.90;;;;;;5111127;28;20040;-66
2022/07/05 04:47:39;;;;;;;13.55;7.55;;;12.50;99.90;;;;;;5111074;28;20051;-64
2022/07/05 04:50:05;;;;;;;13.55;6.82;;;12.70;99.90;;;;;;5111801;28;20062;-65
2022/07/05 04:52:31;;;;;;;12.40;6.80;;;12.50;99.90;;;;;;5112172;28;20139;-66
2022/07/05 04:54:57;;;;;;;12.50;6.68;;;12.80;99.90;;;;;;5112093;28;20126;-65
2022/07/05 04:57:22;;;;;;;10.68;5.90;;;13.00;99.90;;;;;;5112112;28;20055;-66
2022/07/05 04:59:48;;;;;;;7.78;5.25;;;13.20;99.90;;;;;;5112110;28;20512;-66
2022/07/05 05:02:14;;;;;;;7.05;5.68;;;13.30;99.90;;;;;;5112069;28;20054;-65
2022/07/05 05:04:40;;;;;;;7.10;5.15;;;13.30;99.90;;;;;;5110956;28;20052;-65
2022/07/05 05:07:06;;;;;;;7.00;4.95;;;13.30;99.90;;;;;;5112069;28;20490;-64
2022/07/05 05:09:32;;;;;;;7.60;4.97;;;13.90;99.90;;;;;;5111951;28;20044;-65
2022/07/05 05:11:57;;;;;;;8.48;4.80;;;13.80;99.90;;;;;;5112251;28;20070;-65
2022/07/05 05:14:23;;;;;;;10.38;4.13;;;14.20;99.90;;;;;;5111964;28;20043;-65
2022/07/05 05:16:49;;;;;;;11.32;4.05;;;15.10;99.90;;;;;;5111919;28;20083;-65
2022/07/05 05:19:15;;;;;;;7.20;4.50;;;14.40;99.90;;;;;;5111753;28;20082;-65
2022/07/05 05:21:40;;;;;;;;;;;14.30;99.90;;;;;;5112276;28;20096;-65
2022/07/05 05:24:06;;;;;;;9.27;3.38;;;15.00;99.90;;;;;;5110783;28;19985;-65
2022/07/05 05:26:32;;;;;;;;;;;15.10;99.90;;;;;;5112329;28;20108;-64
2022/07/05 05:28:58;;;;;;;5.85;3.30;;;15.10;99.90;;;;;;5111688;28;19927;-67
2022/07/05 05:31:23;;;;;;;6.75;2.70;;;15.30;99.90;;;;;;5111883;28;20460;-65
2022/07/05 05:33:49;;;;;;;11.82;2.95;;;15.30;99.90;;;;;;5112137;28;20050;-65
2022/07/05 05:36:15;;;;;;;7.10;3.20;;;15.10;99.90;;;;;;5112535;28;20083;-64
2022/07/05 05:38:41;;;;;;;;;;;14.90;99.90;;;;;;5103655;28;20036;-65
2022/07/05 05:41:06;;;;;;;4.70;2.88;;;14.90;99.90;;;;;;5093325;28;20299;-65
2022/07/05 05:43:32;;;;;;;;;;;14.90;99.90;;;;;;5093514;28;20057;-65
2022/07/05 05:45:59;;;;;;;8.05;2.45;;;14.90;99.90;;;;;;5093177;28;19927;-67
2022/07/05 05:48:24;;;;;;;7.70;2.38;;;17.90;99.90;;;;;;5089463;28;20122;-65
2022/07/05 05:50:51;;;;;;;10.60;2.22;;;15.70;99.90;;;;;;5093305;28;20135;-71
2022/07/05 05:53:17;;;;;;;5.28;2.15;;;15.60;99.90;;;;;;5091696;28;20075;-65
2022/07/05 05:55:43;;;;;;;9.25;3.03;;;15.90;99.90;;;;;;5093242;28;20044;-64
2022/07/05 05:58:12;;;;;;;;;;;15.90;99.90;;;;;;5093810;28;20059;-66
2022/07/05 06:00:38;;;;;;;10.85;2.95;;;15.90;99.90;;;;;;5092804;28;19931;-67
2022/07/05 06:03:04;;;;;;;10.77;2.20;;;16.00;99.90;;;;;;5092242;28;20040;-66
2022/07/05 06:05:29;;;;;;;;;;;16.00;99.90;;;;;;5093563;28;20499;-68
2022/07/05 06:07:56;;;;;;;10.38;2.20;;;16.30;99.90;;;;;;5092339;28;20280;-66
2022/07/05 06:10:31;;;;;;;6.75;1.70;;;16.30;99.90;;;;;;5092980;28;20047;-66
2022/07/05 06:12:59;;;;;;;7.57;1.80;;;16.70;99.90;;;;;;5091958;28;20052;-66
2022/07/05 06:15:25;;;;;;;5.75;1.67;;;16.20;99.90;;;;;;5092111;28;20048;-65
2022/07/05 06:17:51;;;;;;;12.20;2.45;;;16.30;99.90;;;;;;5092921;28;20075;-67
2022/07/05 06:20:20;;;;;;;9.75;2.03;;;16.30;99.90;;;;;;5092855;28;20123;-67
2022/07/05 06:22:46;;;;;;;10.52;2.22;;;16.80;99.90;;;;;;5092059;28;20052;-75
2022/07/05 06:25:11;;;;;;;;;;;16.60;99.90;;;;;;5092579;28;20476;-66
2022/07/05 06:27:41;;;;;;;4.75;1.50;;;16.70;99.90;;;;;;5092905;28;19935;-71
2022/07/05 06:30:08;;;;;;;10.75;2.05;;;16.60;99.90;;;;;;5092281;28;20489;-66
2022/07/05 06:32:34;;;;;;;7.10;2.25;;;16.90;99.90;;;;;;5092819;28;20048;-68
2022/07/05 06:34:59;;;;;;;;;;;17.20;99.90;;;;;;5092111;28;20476;-65
2022/07/05 06:37:25;;;;;;;4.53;1.65;;;16.80;99.90;;;;;;5092095;28;19927;-66
2022/07/05 06:39:51;;;;;;;;;;;17.40;99.90;;;;;;5092699;28;20544;-67
2022/07/05 06:42:16;;;;;;;11.23;2.38;;;17.10;99.90;;;;;;5092534;28;19924;-67
2022/07/05 06:44:43;;;;;;;;;;;17.30;99.90;;;;;;5090152;28;20052;-66
2022/07/05 06:47:09;;;;;;;9.50;1.90;;;17.50;99.90;;;;;;5092448;28;19920;-66
2022/07/05 06:49:35;;;;;;;6.35;1.50;;;17.70;99.90;;;;;;5092307;28;20382;-66
2022/07/05 06:52:01;;;;;;;;;;;18.10;99.90;;;;;;5091051;28;20115;-65
2022/07/05 06:54:26;;;;;;;9.55;2.00;;;18.30;99.90;;;;;;5091233;28;19920;-65
2022/07/05 06:56:55;;;;;;;;;;;18.50;99.90;;;;;;5089433;28;20122;-65
2022/07/05 06:59:21;;;;;;;6.05;1.50;;;18.30;99.90;;;;;;5092294;28;19931;-66
2022/07/05 07:01:47;;;;;;;12.57;2.00;;;17.90;99.90;;;;;;5092850;28;20440;-63
2022/07/05 07:04:12;;;;;;;;;;;17.50;99.90;;;;;;5093044;28;20126;-64
2022/07/05 07:06:38;;;;;;;6.25;1.58;;;17.60;99.90;;;;;;5092307;28;19924;-65
2022/07/05 07:09:20;;;;;;;;;;;17.60;99.90;;;;;;5093204;28;20101;-64
2022/07/05 07:11:46;;;;;;;5.15;1.48;;;17.00;99.90;;;;;;5090281;28;20359;-63
2022/07/05 07:14:12;;;;;;;8.73;1.75;;;17.30;99.90;;;;;;5091083;28;20059;-62
2022/07/05 07:16:38;;;;;;;4.38;1.35;;;17.20;99.90;;;;;;5092372;28;20044;-62
2022/07/05 07:19:03;;;;;;;6.22;1.33;;;17.20;99.90;;;;;;5092408;28;20823;-65
2022/07/05 07:21:29;;;;;;;4.25;1.20;;;17.80;99.90;;;;;;5091818;28;20052;-64
2022/07/05 07:23:54;;;;;;;6.95;1.63;;;17.80;99.90;;;;;;5092329;28;20172;-65
2022/07/05 07:26:20;;;;;;;;;;;18.00;99.90;;;;;;5092448;28;20052;-65
2022/07/05 07:28:46;;;;;;;4.43;1.15;;;17.80;99.90;;;;;;5092047;28;19920;-66
2022/07/05 07:31:11;;;;;;;8.20;1.80;;;18.10;99.90;;;;;;5092183;28;20519;-66
2022/07/05 07:33:37;;;;;;;;;;;17.70;99.90;;;;;;5091486;28;20052;-63
2022/07/05 07:36:03;;;;;;;7.25;1.30;;;18.00;99.90;;;;;;5091513;28;20398;-64
2022/07/05 07:38:29;;;;;;;8.45;1.60;;;17.80;99.90;;;;;;5092131;28;20048;-64
2022/07/05 07:40:55;;;;;;;8.57;1.98;;;18.10;99.90;;;;;;5092030;28;20044;-65
2022/07/05 07:43:21;;;;;;;5.63;1.20;;;18.10;99.90;;;;;;5090521;28;20040;-66
2022/07/05 07:45:48;;;;;;;9.10;2.45;;;18.50;99.90;;;;;;5091811;28;20145;-62
2022/07/05 07:48:14;;;;;;;9.05;1.50;;;18.30;99.90;;;;;;5091820;28;20083;-64
2022/07/05 07:50:39;;;;;;;5.22;1.25;;;18.20;99.90;;;;;;5091470;28;20091;-63
2022/07/05 07:53:05;;;;;;;6.25;1.10;;;18.30;99.90;;;;;;5090414;28;20077;-64
2022/07/05 07:55:31;;;;;;;4.60;1.20;;;17.90;99.90;;;;;;5091652;28;20048;-67
2022/07/05 07:57:56;;;;;;;4.90;1.25;;;17.90;99.90;;;;;;5092786;28;20131;-64
2022/07/05 08:00:22;;;;;;;6.53;1.40;;;17.90;99.90;;;;;;5091984;28;20044;-64
2022/07/05 08:02:48;;;;;;;9.35;1.80;;;17.70;99.90;;;;;;5092347;28;20135;-64
2022/07/05 08:05:13;;;;;;;3.60;1.15;;;17.70;99.90;;;;;;5091197;28;20131;-63
2022/07/05 08:07:39;;;;;;;3.17;1.05;;;16.70;99.90;;;;;;5090220;28;20048;-63
2022/07/05 08:10:05;;;;;;;4.25;1.30;;;17.60;99.90;;;;;;5090640;28;20044;-63
2022/07/05 08:12:31;;;;;;;5.35;1.38;;;17.50;99.90;;;;;;5090299;28;20110;-63
2022/07/05 08:14:57;;;;;;;;;;;17.60;99.90;;;;;;5091207;28;20396;-65
2022/07/05 08:17:23;;;;;;;4.57;1.45;;;18.30;99.90;;;;;;5089674;28;19981;-64
2022/07/05 08:22:32;;;;;;;5.53;1.40;;;17.90;99.90;;;;;;5087340;28;19950;-65
2022/07/05 08:24:58;;;;;;;4.57;1.50;;;17.30;99.90;;;;;;5090647;28;20387;-64
2022/07/05 08:27:24;;;;;;;5.63;1.30;;;17.70;99.90;;;;;;5089180;28;20040;-64
2022/07/05 08:29:50;;;;;;;5.50;1.20;;;17.80;99.90;;;;;;5089964;28;20104;-63
2022/07/05 08:32:16;;;;;;;6.00;1.10;;;17.90;99.90;;;;;;5090485;28;20463;-63
2022/07/05 08:34:42;;;;;;;9.43;1.77;;;17.80;99.90;;;;;;5089716;28;20411;-63
2022/07/05 08:37:08;;;;;;;4.00;1.27;;;17.50;99.90;;;;;;5089403;28;20052;-64
2022/07/05 08:39:34;;;;;;;4.25;1.20;;;17.90;99.90;;;;;;5090572;28;20036;-64
2022/07/05 08:42:01;;;;;;;5.35;1.20;;;17.90;99.90;;;;;;5090136;28;20117;-63
2022/07/05 08:44:29;;;;;;;5.22;1.60;;;18.10;99.90;;;;;;5089490;28;20465;-65
2022/07/05 08:46:56;;;;;;;3.92;1.35;;;18.00;99.90;;;;;;5091255;28;20052;-64
2022/07/05 08:49:25;;;;;;;6.75;1.88;;;16.70;99.90;;;;;;5090497;28;20455;-63
2022/07/05 08:51:51;;;;;;;6.97;1.30;;;18.10;99.90;;;;;;5091844;28;20056;-64
2022/07/05 08:54:17;;;;;;;4.22;1.15;;;18.10;99.90;;;;;;5091510;28;20472;-63
2022/07/05 08:56:44;;;;;;;5.95;1.20;;;18.20;99.90;;;;;;5091807;28;20044;-64
2022/07/05 08:59:10;;;;;;;5.45;1.30;;;18.10;99.90;;;;;;5088376;28;20043;-66
2022/07/05 09:01:36;;;;;;;4.07;1.15;;;17.80;99.90;;;;;;5090245;28;20126;-68
2022/07/05 09:04:07;;;;;;;6.95;1.38;;;17.90;99.90;;;;;;5089455;28;20104;-75
2022/07/05 09:06:37;;;;;;;2.60;1.08;;;18.00;99.90;;;;;;5089814;28;20044;-73
2022/07/05 09:09:03;;;;;;;6.82;1.20;;;18.70;99.90;;;;;;5089088;28;20044;-66
2022/07/05 09:11:36;;;;;;;4.80;1.17;;;18.50;99.90;;;;;;5087509;28;20075;-67
2022/07/05 09:14:04;;;;;;;5.45;1.15;;;18.70;99.90;;;;;;5088663;28;20123;-66
2022/07/05 09:16:31;;;;;;;6.88;1.10;;;18.20;99.90;;;;;;5094090;28;20044;-67
2022/07/05 09:19:05;;;;;;;4.22;1.27;;;18.20;99.90;;;;;;5093946;28;20059;-67
2022/07/05 09:21:31;;;;;;;6.63;1.20;;;17.90;99.90;;;;;;5093579;28;20048;-68
2022/07/05 09:24:06;;;;;;;5.60;1.85;;;18.50;99.90;;;;;;5093578;28;20051;-66
2022/07/05 09:26:39;;;;;;;7.90;2.47;;;18.20;99.90;;;;;;5086998;28;20040;-65
2022/07/05 09:29:07;;;;;;;9.18;1.70;;;18.00;99.90;;;;;;5093371;28;20091;-63
2022/07/05 09:31:42;;;;;;;3.13;0.93;;;18.40;99.90;;;;;;5094907;28;20051;-62
2022/07/05 09:34:10;;;;;;;2.72;1.02;;;18.30;99.90;;;;;;5092742;28;20048;-67
2022/07/05 09:36:55;;;;;;;6.53;1.23;;;17.90;99.90;;;;;;5093917;28;20618;-65
2022/07/05 09:39:30;;;;;;;2.22;1.00;;;18.30;99.90;;;;;;5094025;28;20109;-68
2022/07/05 09:42:18;;;;;;;4.70;1.10;;;18.20;99.90;;;;;;5094571;28;20433;-65
2022/07/05 09:44:47;;;;;;;5.47;1.48;;;18.40;99.90;;;;;;5094944;28;20048;-66
2022/07/05 09:47:18;;;;;;;5.28;1.35;;;18.40;99.90;;;;;;5095176;28;20137;-65
2022/07/05 09:49:50;;;;;;;6.40;1.17;;;18.70;99.90;;;;;;5094850;28;20066;-66
2022/07/05 09:52:34;;;;;;;3.90;1.60;;;18.40;99.90;;;;;;5094859;28;20054;-65
2022/07/05 09:55:18;;;;;;;7.45;1.73;;;18.80;99.90;;;;;;5094751;28;20040;-65
2022/07/05 09:57:46;;;;;;;7.65;1.33;;;18.80;99.90;;;;;;5094751;28;20131;-65
2022/07/05 10:00:12;;;;;;;5.20;1.02;;;19.80;99.90;;;;;;5094667;28;20047;-67
2022/07/05 10:02:49;;;;;;;14.05;1.90;;;19.60;99.90;;;;;;5094585;28;20058;-65
2022/07/05 10:05:16;;;;;;;3.13;1.40;;;18.80;99.90;;;;;;5094550;28;20500;-67
2022/07/05 10:07:48;;;;;;;5.75;1.50;;;19.20;99.90;;;;;;5094572;28;20083;-66
2022/07/05 10:10:18;;;;;;;3.20;1.20;;;19.30;99.90;;;;;;5094426;28;20176;-67
2022/07/05 10:12:47;;;;;;;4.38;2.08;;;19.40;99.90;;;;;;5094470;28;20051;-66
2022/07/05 10:15:16;;;;;;;7.10;1.42;;;19.70;99.90;;;;;;5094408;28;20131;-66
2022/07/05 10:17:52;;;;;;;3.65;1.40;;;19.40;99.90;;;;;;5094397;28;20113;-67
2022/07/05 10:20:32;;;;;;;5.22;1.42;;;19.10;99.90;;;;;;5094323;28;20036;-66
2022/07/05 10:23:01;;;;;;;6.25;1.40;;;18.90;99.90;;;;;;5092632;28;20048;-65
2022/07/05 10:25:28;;;;;;;7.45;1.55;;;19.00;99.90;;;;;;5093157;28;20130;-69
2022/07/05 10:27:54;;;;;;;3.00;1.00;;;19.10;99.90;;;;;;5093972;28;20048;-65
2022/07/05 10:30:23;;;;;;;6.22;1.10;;;19.20;99.90;;;;;;5094008;28;20047;-69
2022/07/05 10:32:49;;;;;;;7.20;1.27;;;18.60;99.90;;;;;;5094100;28;20130;-65
2022/07/05 10:35:19;;;;;;;6.78;1.35;;;18.70;99.90;;;;;;5093943;28;20083;-67
2022/07/05 10:37:46;;;;;;;7.45;1.63;;;19.10;99.90;;;;;;5094015;28;20044;-64
2022/07/05 10:40:13;;;;;;;3.97;1.58;;;18.80;99.90;;;;;;5093925;28;20048;-66
2022/07/05 10:42:48;;;;;;;4.55;1.35;;;19.20;99.90;;;;;;5093127;28;20086;-76
2022/07/05 10:45:33;;;;;;;3.20;1.10;;;19.30;99.90;;;;;;5093674;28;20048;-64
2022/07/05 10:48:14;;;;;;;4.75;1.00;;;19.30;99.90;;;;;;5093686;28;20050;-65
2022/07/05 10:50:50;;;;;;;3.10;1.20;;;19.90;99.90;;;;;;5093651;28;20049;-64
2022/07/05 10:53:23;;;;;;;6.47;1.30;;;19.80;99.90;;;;;;5093783;28;20048;-65
2022/07/05 10:55:54;;;;;;;5.00;1.33;;;19.50;99.90;;;;;;5092438;28;20054;-64
2022/07/05 10:58:23;;;;;;;5.40;1.15;;;19.00;99.90;;;;;;5092727;28;20047;-64
2022/07/05 11:01:11;;;;;;;4.70;1.20;;;19.00;99.90;;;;;;5093375;28;20048;-65
2022/07/05 11:03:48;;;;;;;3.78;1.10;;;19.10;99.90;;;;;;5093224;28;20066;-66
2022/07/05 11:06:39;;;;;;;6.55;1.60;;;18.50;99.90;;;;;;5093477;28;20040;-64
2022/07/05 11:09:07;;;;;;;3.78;1.30;;;18.80;99.90;;;;;;5093146;28;20036;-64
2022/07/05 11:11:35;;;;;;;7.07;1.35;;;18.70;99.90;;;;;;5093122;28;20063;-65
2022/07/05 11:14:05;;;;;;;6.05;1.63;;;18.70;99.90;;;;;;5093362;28;20047;-64
2022/07/05 11:16:33;;;;;;;5.20;1.50;;;19.00;99.90;;;;;;5093340;28;20048;-65
2022/07/05 11:19:06;;;;;;;5.70;1.50;;;18.60;99.90;;;;;;5092119;28;20395;-64
2022/07/05 11:21:33;;;;;;;7.20;1.55;;;18.30;99.90;;;;;;5093189;28;20044;-64
2022/07/05 11:24:37;;;;;;;6.30;1.67;;;18.40;99.90;;;;;;5092935;28;20193;-64
2022/07/05 11:27:12;;;;;;;2.78;1.20;;;19.10;99.90;;;;;;5070012;28;20386;-68
2022/07/05 11:29:48;;;;;;;4.63;1.30;;;18.90;99.90;;;;;;5089960;28;20132;-66
2022/07/05 11:32:22;;;;;;;4.85;1.45;;;18.90;99.90;;;;;;5092946;28;20047;-65
2022/07/05 11:34:51;;;;;;;4.47;1.48;;;18.70;99.90;;;;;;5092144;28;20051;-66
2022/07/05 11:37:18;;;;;;;3.10;1.23;;;19.00;99.90;;;;;;5092844;28;20123;-64
2022/07/05 11:39:46;;;;;;;6.47;1.75;;;19.10;99.90;;;;;;5092671;28;20087;-64
2022/07/05 11:42:20;;;;;;;3.30;1.40;;;19.00;99.90;;;;;;5092274;28;20489;-64
2022/07/05 11:44:50;;;;;;;2.75;1.00;;;19.20;99.90;;;;;;5092753;28;20051;-64
2022/07/05 11:47:19;;;;;;;5.32;1.30;;;18.90;99.90;;;;;;5092475;28;20044;-64
2022/07/05 11:49:58;;;;;;;2.22;1.00;;;18.60;99.90;;;;;;5091781;28;20392;-64
2022/07/05 11:52:28;;;;;;;2.75;0.90;;;18.60;99.90;;;;;;5092130;28;20181;-65
2022/07/05 11:54:55;;;;;;;4.05;1.23;;;18.00;99.90;;;;;;5087960;28;20040;-64
2022/07/05 11:57:21;;;;;;;4.55;1.15;;;18.20;99.90;;;;;;5091003;28;20052;-66
2022/07/05 11:59:47;;;;;;;9.98;2.55;;;18.30;99.90;;;;;;5090458;28;20051;-65
2022/07/05 12:02:13;;;;;;;3.80;1.10;;;18.50;99.90;;;;;;5089188;28;20089;-67
2022/07/05 12:04:39;;;;;;;3.58;1.25;;;18.20;99.90;;;;;;5092133;28;20043;-65
2022/07/05 12:07:05;;;;;;;2.63;0.95;;;18.60;99.90;;;;;;5091722;28;20450;-66
2022/07/05 12:12:42;;;;;;;4.82;1.20;;;18.50;99.90;;;;;;5069148;28;20068;-65
2022/07/05 12:15:10;;;;;;;3.75;1.10;;;18.40;99.90;;;;;;5088746;28;20060;-65
2022/07/05 12:17:37;;;;;;;1.98;1.20;;;18.70;99.90;;;;;;5092011;28;20488;-63
2022/07/05 12:20:08;;;;;;;4.47;1.15;;;18.50;99.90;;;;;;5091976;28;20055;-66
2022/07/05 12:22:37;;;;;;;2.90;1.20;;;18.80;99.90;;;;;;5091914;28;20054;-64
2022/07/05 12:25:05;;;;;;;6.18;1.75;;;19.10;99.90;;;;;;5092108;28;20496;-65
2022/07/05 12:27:33;;;;;;;4.43;1.80;;;19.10;99.90;;;;;;5107066;28;20093;-64
2022/07/05 12:30:01;;;;;;;5.40;1.40;;;19.30;99.90;;;;;;5109931;28;20142;-66
2022/07/05 12:32:29;;;;;;;3.03;1.15;;;19.00;99.90;;;;;;5110345;28;20063;-65
2022/07/05 12:34:56;;;;;;;8.20;1.50;;;18.90;99.90;;;;;;5112067;28;20051;-65
2022/07/05 12:37:27;;;;;;;5.05;1.42;;;18.70;99.90;;;;;;5112119;28;20146;-64
2022/07/05 12:40:07;;;;;;;4.35;1.40;;;18.70;99.90;;;;;;5112332;28;20048;-65
2022/07/05 12:42:35;;;;;;;6.00;1.63;;;19.30;99.90;;;;;;5112143;28;20130;-65
2022/07/05 12:45:15;;;;;;;3.72;1.20;;;18.90;99.90;;;;;;5112235;28;20051;-64
2022/07/05 12:47:56;;;;;;;2.08;1.13;;;19.20;99.90;;;;;;5116356;28;20544;-64
2022/07/05 12:50:25;;;;;;;4.13;1.27;;;19.30;99.90;;;;;;5116498;28;20078;-64
2022/07/05 12:58:55;;;;;;;3.97;1.10;;;19.40;99.90;;;;;;5116205;28;20055;-64
2022/07/05 13:01:25;;;;;;;7.15;1.48;;;19.20;99.90;;;;;;5116089;28;20074;-64
2022/07/05 13:04:13;;;;;;;3.45;1.25;;;19.50;99.90;;;;;;5116039;28;20491;-65
2022/07/05 13:07:03;;;;;;;3.33;1.45;;;19.90;99.90;;;;;;5114683;28;20100;-67
2022/07/05 13:09:29;;;;;;;5.07;1.40;;;20.10;99.90;;;;;;5110279;28;20059;-67